THY1NX LTAC-LTFM
Flight info
| Callsign | THY1NX |
|---|---|
| Flight time | 0h 47m |
| Altitude | 28000 |
| Route | YAVRU A4 ERSEN |
| Aircraft | B77W/H-SDE1E2E3FGHIJ2J3J4J5M1RWXY/LB1D1 |
Departure
| Time | 2026-05-07 17:24 |
|---|---|
| Airport | Esenboğa International Airport (LTAC) |
Arrival
| Time | 2026-05-07 18:11 |
|---|---|
| Airport | İstanbul Airport (LTFM) |
| Time | Latitude | Longitude | Altitude | Speed | Heading |
|---|---|---|---|---|---|
| 2026-05-07 15:47 | 40.11580 | 32.99081 | 3118 ft | 0 kts | 143° |
| 2026-05-07 17:08 | 40.11581 | 32.99080 | 3118 ft | 2 kts | 143° |
| 2026-05-07 17:08 | 40.11601 | 32.99061 | 3118 ft | 4 kts | 143° |
| 2026-05-07 17:08 | 40.11618 | 32.99045 | 3118 ft | 4 kts | 158° |
| 2026-05-07 17:08 | 40.11634 | 32.99040 | 3118 ft | 4 kts | 201° |
| 2026-05-07 17:09 | 40.11651 | 32.99056 | 3118 ft | 4 kts | 232° |
| 2026-05-07 17:09 | 40.11661 | 32.99074 | 3118 ft | 0 kts | 236° |
| 2026-05-07 17:12 | 40.11660 | 32.99071 | 3118 ft | 2 kts | 236° |
| 2026-05-07 17:12 | 40.11638 | 32.99032 | 3118 ft | 3 kts | 234° |
| 2026-05-07 17:12 | 40.11627 | 32.99004 | 3118 ft | 4 kts | 251° |
| 2026-05-07 17:13 | 40.11627 | 32.98971 | 3118 ft | 4 kts | 279° |
| 2026-05-07 17:13 | 40.11642 | 32.98925 | 3117 ft | 7 kts | 300° |
| 2026-05-07 17:13 | 40.11682 | 32.98903 | 3118 ft | 7 kts | 10° |
| 2026-05-07 17:13 | 40.11733 | 32.98938 | 3118 ft | 10 kts | 32° |
| 2026-05-07 17:14 | 40.11800 | 32.98999 | 3118 ft | 13 kts | 35° |
| 2026-05-07 17:14 | 40.11885 | 32.99079 | 3119 ft | 17 kts | 37° |
| 2026-05-07 17:14 | 40.11982 | 32.99172 | 3120 ft | 17 kts | 36° |
| 2026-05-07 17:14 | 40.12080 | 32.99266 | 3121 ft | 17 kts | 36° |
| 2026-05-07 17:15 | 40.12178 | 32.99360 | 3123 ft | 17 kts | 36° |
| 2026-05-07 17:15 | 40.12276 | 32.99454 | 3123 ft | 17 kts | 36° |
| 2026-05-07 17:15 | 40.12374 | 32.99547 | 3121 ft | 17 kts | 36° |
| 2026-05-07 17:15 | 40.12472 | 32.99640 | 3125 ft | 17 kts | 36° |
| 2026-05-07 17:16 | 40.12570 | 32.99734 | 3127 ft | 17 kts | 36° |
| 2026-05-07 17:16 | 40.12667 | 32.99828 | 3125 ft | 17 kts | 36° |
| 2026-05-07 17:16 | 40.12766 | 32.99921 | 3128 ft | 17 kts | 36° |
| 2026-05-07 17:16 | 40.12864 | 33.00014 | 3129 ft | 17 kts | 36° |
| 2026-05-07 17:17 | 40.12961 | 33.00108 | 3130 ft | 17 kts | 36° |
| 2026-05-07 17:17 | 40.13059 | 33.00202 | 3131 ft | 17 kts | 36° |
| 2026-05-07 17:17 | 40.13157 | 33.00295 | 3130 ft | 17 kts | 36° |
| 2026-05-07 17:17 | 40.13255 | 33.00389 | 3131 ft | 17 kts | 36° |
| 2026-05-07 17:18 | 40.13353 | 33.00483 | 3131 ft | 17 kts | 36° |
| 2026-05-07 17:18 | 40.13418 | 33.00545 | 3133 ft | 17 kts | 36° |
| 2026-05-07 17:18 | 40.13516 | 33.00638 | 3135 ft | 17 kts | 36° |
| 2026-05-07 17:18 | 40.13614 | 33.00732 | 3137 ft | 17 kts | 36° |
| 2026-05-07 17:19 | 40.13743 | 33.00856 | 3138 ft | 17 kts | 36° |
| 2026-05-07 17:19 | 40.13809 | 33.00919 | 3139 ft | 17 kts | 36° |
| 2026-05-07 17:19 | 40.13900 | 33.01005 | 3140 ft | 10 kts | 36° |
| 2026-05-07 17:19 | 40.13953 | 33.01053 | 3140 ft | 9 kts | 28° |
| 2026-05-07 17:20 | 40.14015 | 33.01071 | 3141 ft | 9 kts | 358° |
| 2026-05-07 17:20 | 40.14069 | 33.01043 | 3141 ft | 8 kts | 320° |
| 2026-05-07 17:20 | 40.14094 | 33.00989 | 3141 ft | 4 kts | 294° |
| 2026-05-07 17:20 | 40.14099 | 33.00976 | 3141 ft | 2 kts | 294° |
| 2026-05-07 17:21 | 40.14106 | 33.00955 | 3141 ft | 4 kts | 295° |
| 2026-05-07 17:21 | 40.14127 | 33.00910 | 3141 ft | 8 kts | 302° |
| 2026-05-07 17:21 | 40.14166 | 33.00835 | 3141 ft | 12 kts | 306° |
| 2026-05-07 17:21 | 40.14203 | 33.00768 | 3141 ft | 4 kts | 306° |
| 2026-05-07 17:22 | 40.14212 | 33.00718 | 3140 ft | 7 kts | 258° |
| 2026-05-07 17:22 | 40.14182 | 33.00668 | 3140 ft | 7 kts | 222° |
| 2026-05-07 17:22 | 40.14149 | 33.00638 | 3140 ft | 0 kts | 210° |
| 2026-05-07 17:22 | 40.14145 | 33.00634 | 3140 ft | 1 kts | 216° |
| 2026-05-07 17:23 | 40.14139 | 33.00627 | 3140 ft | 1 kts | 220° |
| 2026-05-07 17:23 | 40.14089 | 33.00574 | 3140 ft | 20 kts | 217° |
| 2026-05-07 17:23 | 40.13893 | 33.00386 | 3138 ft | 57 kts | 216° |
| 2026-05-07 17:23 | 40.13352 | 32.99868 | 3129 ft | 134 kts | 216° |
| 2026-05-07 17:24 | 40.12433 | 32.98993 | 3253 ft | 180 kts | 216° |
| 2026-05-07 17:24 | 40.11428 | 32.98029 | 4024 ft | 178 kts | 217° |
| 2026-05-07 17:24 | 40.10410 | 32.97064 | 4786 ft | 184 kts | 216° |
| 2026-05-07 17:24 | 40.09293 | 32.96017 | 5095 ft | 212 kts | 216° |
| 2026-05-07 17:25 | 40.08016 | 32.94820 | 5354 ft | 241 kts | 216° |
| 2026-05-07 17:25 | 40.06581 | 32.93473 | 5780 ft | 262 kts | 216° |
| 2026-05-07 17:25 | 40.05087 | 32.92071 | 6545 ft | 272 kts | 217° |
| 2026-05-07 17:25 | 40.03622 | 32.90505 | 7322 ft | 275 kts | 231° |
| 2026-05-07 17:26 | 40.02762 | 32.88272 | 8155 ft | 279 kts | 258° |
| 2026-05-07 17:26 | 40.02654 | 32.85755 | 9099 ft | 280 kts | 276° |
| 2026-05-07 17:26 | 40.03231 | 32.83331 | 9913 ft | 284 kts | 302° |
| 2026-05-07 17:26 | 40.04429 | 32.81247 | 10511 ft | 296 kts | 308° |
| 2026-05-07 17:27 | 40.05758 | 32.79029 | 10748 ft | 325 kts | 307° |
| 2026-05-07 17:27 | 40.07185 | 32.76589 | 11131 ft | 348 kts | 307° |
| 2026-05-07 17:27 | 40.08660 | 32.74031 | 11939 ft | 357 kts | 306° |
| 2026-05-07 17:27 | 40.10162 | 32.71410 | 12995 ft | 362 kts | 306° |
| 2026-05-07 17:28 | 40.11673 | 32.68764 | 14107 ft | 365 kts | 306° |
| 2026-05-07 17:28 | 40.13196 | 32.66092 | 15178 ft | 369 kts | 306° |
| 2026-05-07 17:28 | 40.14737 | 32.63387 | 16183 ft | 374 kts | 306° |
| 2026-05-07 17:28 | 40.16299 | 32.60639 | 17130 ft | 379 kts | 306° |
| 2026-05-07 17:29 | 40.17880 | 32.57858 | 18072 ft | 384 kts | 306° |
| 2026-05-07 17:29 | 40.19484 | 32.55034 | 18998 ft | 388 kts | 306° |
| 2026-05-07 17:29 | 40.21151 | 32.52229 | 19842 ft | 393 kts | 311° |
| 2026-05-07 17:29 | 40.23053 | 32.49692 | 20640 ft | 399 kts | 316° |
| 2026-05-07 17:30 | 40.25122 | 32.47229 | 21483 ft | 403 kts | 318° |
| 2026-05-07 17:30 | 40.27225 | 32.44773 | 22302 ft | 407 kts | 318° |
| 2026-05-07 17:30 | 40.29339 | 32.42266 | 23100 ft | 411 kts | 317° |
| 2026-05-07 17:30 | 40.31451 | 32.39710 | 23874 ft | 415 kts | 317° |
| 2026-05-07 17:31 | 40.33550 | 32.37131 | 24805 ft | 412 kts | 317° |
| 2026-05-07 17:31 | 40.35619 | 32.34569 | 25916 ft | 405 kts | 317° |
| 2026-05-07 17:31 | 40.37637 | 32.32064 | 27106 ft | 395 kts | 317° |
| 2026-05-07 17:31 | 40.39639 | 32.29579 | 27666 ft | 398 kts | 317° |
| 2026-05-07 17:32 | 40.41630 | 32.27108 | 27595 ft | 392 kts | 317° |
| 2026-05-07 17:32 | 40.43614 | 32.24644 | 27563 ft | 392 kts | 317° |
| 2026-05-07 17:32 | 40.45591 | 32.22186 | 27535 ft | 391 kts | 317° |
| 2026-05-07 17:32 | 40.47396 | 32.19521 | 27491 ft | 393 kts | 305° |
| 2026-05-07 17:33 | 40.48607 | 32.16292 | 27472 ft | 398 kts | 294° |
| 2026-05-07 17:33 | 40.49574 | 32.12928 | 27457 ft | 398 kts | 293° |
| 2026-05-07 17:33 | 40.50539 | 32.09524 | 27432 ft | 397 kts | 293° |
| 2026-05-07 17:33 | 40.51510 | 32.06131 | 27412 ft | 397 kts | 294° |
| 2026-05-07 17:34 | 40.52494 | 32.02738 | 27392 ft | 396 kts | 294° |
| 2026-05-07 17:34 | 40.53483 | 31.99359 | 27359 ft | 397 kts | 294° |
| 2026-05-07 17:34 | 40.54476 | 31.95979 | 27334 ft | 396 kts | 294° |
| 2026-05-07 17:34 | 40.55467 | 31.92608 | 27311 ft | 396 kts | 294° |
| 2026-05-07 17:35 | 40.56459 | 31.89236 | 27280 ft | 395 kts | 294° |
| 2026-05-07 17:35 | 40.57450 | 31.85864 | 27266 ft | 395 kts | 294° |
| 2026-05-07 17:35 | 40.58435 | 31.82490 | 27234 ft | 395 kts | 293° |
| 2026-05-07 17:35 | 40.59345 | 31.79072 | 27209 ft | 397 kts | 291° |
| 2026-05-07 17:36 | 40.60199 | 31.75619 | 27183 ft | 397 kts | 290° |
| 2026-05-07 17:36 | 40.61038 | 31.72143 | 27160 ft | 397 kts | 290° |
| 2026-05-07 17:36 | 40.61874 | 31.68678 | 27136 ft | 397 kts | 290° |
| 2026-05-07 17:36 | 40.62717 | 31.65206 | 27110 ft | 397 kts | 291° |
| 2026-05-07 17:37 | 40.63564 | 31.61742 | 27081 ft | 398 kts | 291° |
| 2026-05-07 17:37 | 40.64413 | 31.58279 | 27065 ft | 398 kts | 291° |
| 2026-05-07 17:37 | 40.65254 | 31.54856 | 27044 ft | 397 kts | 291° |
| 2026-05-07 17:37 | 40.66106 | 31.51396 | 27015 ft | 397 kts | 291° |
| 2026-05-07 17:38 | 40.66959 | 31.47927 | 26987 ft | 397 kts | 291° |
| 2026-05-07 17:38 | 40.67761 | 31.44659 | 26962 ft | 397 kts | 291° |
| 2026-05-07 17:38 | 40.68612 | 31.41192 | 26936 ft | 397 kts | 291° |
| 2026-05-07 17:38 | 40.69462 | 31.37725 | 26916 ft | 397 kts | 291° |
| 2026-05-07 17:39 | 40.70309 | 31.34257 | 26896 ft | 397 kts | 291° |
| 2026-05-07 17:39 | 40.71152 | 31.30801 | 26872 ft | 397 kts | 290° |
| 2026-05-07 17:39 | 40.71998 | 31.27330 | 26845 ft | 397 kts | 291° |
| 2026-05-07 17:39 | 40.72758 | 31.24206 | 26822 ft | 397 kts | 291° |
| 2026-05-07 17:40 | 40.73522 | 31.21070 | 26798 ft | 397 kts | 290° |
| 2026-05-07 17:40 | 40.74366 | 31.17599 | 26763 ft | 397 kts | 290° |
| 2026-05-07 17:40 | 40.75193 | 31.14186 | 26749 ft | 393 kts | 290° |
| 2026-05-07 17:40 | 40.76025 | 31.10739 | 26705 ft | 385 kts | 290° |
| 2026-05-07 17:41 | 40.76816 | 31.07457 | 26636 ft | 374 kts | 291° |
| 2026-05-07 17:41 | 40.77593 | 31.04228 | 26545 ft | 364 kts | 291° |
| 2026-05-07 17:41 | 40.78352 | 31.01077 | 26393 ft | 356 kts | 291° |
| 2026-05-07 17:41 | 40.79097 | 30.97983 | 26142 ft | 352 kts | 291° |
| 2026-05-07 17:42 | 40.79839 | 30.94906 | 25734 ft | 352 kts | 291° |
| 2026-05-07 17:42 | 40.80577 | 30.91836 | 25360 ft | 351 kts | 291° |
| 2026-05-07 17:42 | 40.81316 | 30.88758 | 25017 ft | 350 kts | 291° |
| 2026-05-07 17:42 | 40.82047 | 30.85706 | 24677 ft | 349 kts | 291° |
| 2026-05-07 17:43 | 40.82775 | 30.82661 | 24352 ft | 347 kts | 291° |
| 2026-05-07 17:43 | 40.83499 | 30.79631 | 24026 ft | 345 kts | 290° |
| 2026-05-07 17:43 | 40.84187 | 30.76747 | 23713 ft | 344 kts | 291° |
| 2026-05-07 17:43 | 40.84904 | 30.73738 | 23378 ft | 342 kts | 290° |
| 2026-05-07 17:44 | 40.85618 | 30.70742 | 23066 ft | 341 kts | 290° |
| 2026-05-07 17:44 | 40.86327 | 30.67757 | 22774 ft | 339 kts | 290° |
| 2026-05-07 17:44 | 40.86902 | 30.64736 | 22456 ft | 340 kts | 283° |
| 2026-05-07 17:44 | 40.87206 | 30.61626 | 22158 ft | 340 kts | 279° |
| 2026-05-07 17:45 | 40.87437 | 30.58568 | 21847 ft | 339 kts | 279° |
| 2026-05-07 17:45 | 40.87694 | 30.55448 | 21551 ft | 337 kts | 280° |
| 2026-05-07 17:45 | 40.87973 | 30.52379 | 21247 ft | 335 kts | 281° |
| 2026-05-07 17:45 | 40.88261 | 30.49330 | 20945 ft | 334 kts | 281° |
| 2026-05-07 17:46 | 40.88677 | 30.46348 | 20583 ft | 327 kts | 292° |
| 2026-05-07 17:46 | 40.89729 | 30.43718 | 20213 ft | 323 kts | 309° |
| 2026-05-07 17:46 | 40.91173 | 30.41505 | 20176 ft | 322 kts | 313° |
| 2026-05-07 17:46 | 40.92703 | 30.39294 | 20110 ft | 322 kts | 314° |
| 2026-05-07 17:47 | 40.94191 | 30.37141 | 20108 ft | 321 kts | 313° |
| 2026-05-07 17:47 | 40.95690 | 30.34944 | 20115 ft | 321 kts | 313° |
| 2026-05-07 17:47 | 40.97184 | 30.32731 | 20111 ft | 323 kts | 313° |
| 2026-05-07 17:47 | 40.98673 | 30.30518 | 20112 ft | 322 kts | 313° |
| 2026-05-07 17:48 | 41.00159 | 30.28304 | 20102 ft | 322 kts | 313° |
| 2026-05-07 17:48 | 41.01646 | 30.26088 | 20108 ft | 321 kts | 313° |
| 2026-05-07 17:48 | 41.03134 | 30.23868 | 20106 ft | 319 kts | 313° |
| 2026-05-07 17:48 | 41.04585 | 30.21701 | 20101 ft | 309 kts | 313° |
| 2026-05-07 17:49 | 41.05980 | 30.19571 | 20094 ft | 304 kts | 307° |
| 2026-05-07 17:49 | 41.06866 | 30.17068 | 20114 ft | 309 kts | 286° |
| 2026-05-07 17:49 | 41.06996 | 30.14159 | 20114 ft | 318 kts | 266° |
| 2026-05-07 17:49 | 41.06394 | 30.11329 | 19937 ft | 324 kts | 249° |
| 2026-05-07 17:50 | 41.05078 | 30.08877 | 19543 ft | 333 kts | 227° |
| 2026-05-07 17:50 | 41.03345 | 30.06905 | 19162 ft | 332 kts | 224° |
| 2026-05-07 17:50 | 41.01578 | 30.04935 | 18774 ft | 331 kts | 225° |
| 2026-05-07 17:50 | 40.99836 | 30.02951 | 18395 ft | 330 kts | 225° |
| 2026-05-07 17:51 | 40.98109 | 30.00957 | 18040 ft | 327 kts | 225° |
| 2026-05-07 17:51 | 40.96403 | 29.98980 | 17696 ft | 325 kts | 225° |
| 2026-05-07 17:51 | 40.94714 | 29.97020 | 17330 ft | 323 kts | 225° |
| 2026-05-07 17:51 | 40.93024 | 29.95059 | 16958 ft | 321 kts | 225° |
| 2026-05-07 17:52 | 40.91348 | 29.93116 | 16623 ft | 319 kts | 225° |
| 2026-05-07 17:52 | 40.89680 | 29.91186 | 16277 ft | 317 kts | 225° |
| 2026-05-07 17:52 | 40.88064 | 29.89221 | 15880 ft | 310 kts | 233° |
| 2026-05-07 17:52 | 40.87302 | 29.87656 | 15537 ft | 305 kts | 251° |
| 2026-05-07 17:53 | 40.86989 | 29.86471 | 15354 ft | 302 kts | 260° |
| 2026-05-07 17:53 | 40.86772 | 29.83745 | 14997 ft | 296 kts | 273° |
| 2026-05-07 17:53 | 40.86846 | 29.81078 | 14663 ft | 293 kts | 276° |
| 2026-05-07 17:53 | 40.87001 | 29.78400 | 14314 ft | 291 kts | 277° |
| 2026-05-07 17:54 | 40.87171 | 29.75739 | 13960 ft | 290 kts | 277° |
| 2026-05-07 17:54 | 40.87338 | 29.73081 | 13596 ft | 289 kts | 277° |
| 2026-05-07 17:54 | 40.87500 | 29.70441 | 13233 ft | 288 kts | 276° |
| 2026-05-07 17:54 | 40.87656 | 29.67806 | 12899 ft | 287 kts | 276° |
| 2026-05-07 17:55 | 40.87807 | 29.65184 | 12562 ft | 285 kts | 276° |
| 2026-05-07 17:55 | 40.87955 | 29.62573 | 12209 ft | 285 kts | 276° |
| 2026-05-07 17:55 | 40.88100 | 29.59970 | 11864 ft | 284 kts | 276° |
| 2026-05-07 17:55 | 40.88243 | 29.57376 | 11521 ft | 282 kts | 275° |
| 2026-05-07 17:56 | 40.88381 | 29.54813 | 11346 ft | 275 kts | 275° |
| 2026-05-07 17:56 | 40.88515 | 29.52320 | 11128 ft | 270 kts | 275° |
| 2026-05-07 17:56 | 40.88647 | 29.49858 | 10825 ft | 267 kts | 275° |
| 2026-05-07 17:56 | 40.88776 | 29.47451 | 10545 ft | 265 kts | 275° |
| 2026-05-07 17:57 | 40.88906 | 29.45004 | 10262 ft | 262 kts | 275° |
| 2026-05-07 17:57 | 40.88990 | 29.43419 | 10074 ft | 261 kts | 275° |
| 2026-05-07 17:57 | 40.89155 | 29.40272 | 9694 ft | 257 kts | 275° |
| 2026-05-07 17:57 | 40.89278 | 29.37922 | 9412 ft | 255 kts | 275° |
| 2026-05-07 17:58 | 40.89400 | 29.35591 | 9132 ft | 253 kts | 275° |
| 2026-05-07 17:58 | 40.89521 | 29.33272 | 8857 ft | 253 kts | 275° |
| 2026-05-07 17:58 | 40.89641 | 29.30945 | 8564 ft | 254 kts | 274° |
| 2026-05-07 17:58 | 40.89761 | 29.28618 | 8302 ft | 253 kts | 274° |
| 2026-05-07 17:59 | 40.89880 | 29.26302 | 8021 ft | 252 kts | 274° |
| 2026-05-07 17:59 | 40.89998 | 29.24003 | 7744 ft | 250 kts | 274° |
| 2026-05-07 17:59 | 40.90114 | 29.21726 | 7518 ft | 246 kts | 274° |
| 2026-05-07 17:59 | 40.90227 | 29.19496 | 7341 ft | 240 kts | 274° |
| 2026-05-07 18:00 | 40.90337 | 29.17313 | 7101 ft | 236 kts | 274° |
| 2026-05-07 18:00 | 40.90446 | 29.15144 | 6807 ft | 236 kts | 274° |
| 2026-05-07 18:00 | 40.90554 | 29.12981 | 6511 ft | 235 kts | 274° |
| 2026-05-07 18:00 | 40.90662 | 29.10835 | 6233 ft | 234 kts | 274° |
| 2026-05-07 18:01 | 40.90769 | 29.08696 | 5938 ft | 233 kts | 274° |
| 2026-05-07 18:01 | 40.90875 | 29.06564 | 5647 ft | 231 kts | 274° |
| 2026-05-07 18:01 | 40.90978 | 29.04466 | 5345 ft | 231 kts | 274° |
| 2026-05-07 18:01 | 40.91083 | 29.02348 | 5083 ft | 230 kts | 274° |
| 2026-05-07 18:02 | 40.91380 | 28.98128 | 4772 ft | 232 kts | 277° |
| 2026-05-07 18:02 | 40.91575 | 28.96013 | 4575 ft | 230 kts | 277° |
| 2026-05-07 18:02 | 40.91765 | 28.93913 | 4390 ft | 229 kts | 277° |
| 2026-05-07 18:03 | 40.91950 | 28.91818 | 4214 ft | 229 kts | 277° |
| 2026-05-07 18:03 | 40.92072 | 28.90433 | 4114 ft | 228 kts | 277° |
| 2026-05-07 18:03 | 40.92255 | 28.88356 | 4062 ft | 227 kts | 277° |
| 2026-05-07 18:03 | 40.92437 | 28.86275 | 4005 ft | 229 kts | 276° |
| 2026-05-07 18:04 | 40.92619 | 28.84179 | 4002 ft | 229 kts | 276° |
| 2026-05-07 18:04 | 40.92801 | 28.82085 | 4002 ft | 230 kts | 276° |
| 2026-05-07 18:04 | 40.93175 | 28.80057 | 3981 ft | 229 kts | 300° |
| 2026-05-07 18:04 | 40.94278 | 28.78550 | 4001 ft | 232 kts | 324° |
| 2026-05-07 18:05 | 40.95653 | 28.77409 | 4004 ft | 233 kts | 328° |
| 2026-05-07 18:05 | 40.97067 | 28.76391 | 3989 ft | 229 kts | 339° |
| 2026-05-07 18:05 | 40.98623 | 28.76137 | 4010 ft | 227 kts | 360° |
| 2026-05-07 18:05 | 41.00211 | 28.76154 | 3996 ft | 228 kts | 358° |
| 2026-05-07 18:06 | 41.01782 | 28.76131 | 3989 ft | 224 kts | 358° |
| 2026-05-07 18:06 | 41.03336 | 28.76103 | 3991 ft | 223 kts | 358° |
| 2026-05-07 18:06 | 41.04878 | 28.76074 | 4043 ft | 218 kts | 358° |
| 2026-05-07 18:06 | 41.06350 | 28.76047 | 3984 ft | 205 kts | 357° |
| 2026-05-07 18:07 | 41.07729 | 28.76021 | 3887 ft | 195 kts | 357° |
| 2026-05-07 18:07 | 41.09081 | 28.75994 | 3630 ft | 194 kts | 357° |
| 2026-05-07 18:07 | 41.10403 | 28.75970 | 3401 ft | 188 kts | 358° |
| 2026-05-07 18:07 | 41.11662 | 28.75947 | 3134 ft | 175 kts | 358° |
| 2026-05-07 18:08 | 41.12867 | 28.75924 | 2916 ft | 172 kts | 358° |
| 2026-05-07 18:08 | 41.14054 | 28.75901 | 2686 ft | 170 kts | 358° |
| 2026-05-07 18:08 | 41.15230 | 28.75878 | 2485 ft | 167 kts | 358° |
| 2026-05-07 18:08 | 41.16368 | 28.75859 | 2247 ft | 158 kts | 358° |
| 2026-05-07 18:09 | 41.17371 | 28.75839 | 2059 ft | 154 kts | 357° |
| 2026-05-07 18:09 | 41.18440 | 28.75817 | 1848 ft | 151 kts | 357° |
| 2026-05-07 18:09 | 41.19480 | 28.75798 | 1683 ft | 149 kts | 357° |
| 2026-05-07 18:09 | 41.20510 | 28.75778 | 1454 ft | 147 kts | 357° |
| 2026-05-07 18:10 | 41.21527 | 28.75759 | 1267 ft | 145 kts | 357° |
| 2026-05-07 18:10 | 41.22536 | 28.75739 | 1071 ft | 145 kts | 357° |
| 2026-05-07 18:10 | 41.23542 | 28.75720 | 880 ft | 144 kts | 357° |
| 2026-05-07 18:10 | 41.24545 | 28.75702 | 687 ft | 143 kts | 358° |
| 2026-05-07 18:11 | 41.25551 | 28.75680 | 488 ft | 146 kts | 358° |
| 2026-05-07 18:11 | 41.26554 | 28.75668 | 364 ft | 142 kts | 359° |
| 2026-05-07 18:11 | 41.27468 | 28.75646 | 335 ft | 110 kts | 359° |
| 2026-05-07 18:11 | 41.28032 | 28.75638 | 337 ft | 37 kts | 1° |
| 2026-05-07 18:12 | 41.28156 | 28.75635 | 336 ft | 17 kts | 355° |
| 2026-05-07 18:12 | 41.28244 | 28.75618 | 335 ft | 7 kts | 349° |
| 2026-05-07 18:12 | 41.28293 | 28.75600 | 339 ft | 8 kts | 341° |
| 2026-05-07 18:12 | 41.28346 | 28.75572 | 335 ft | 8 kts | 337° |
| 2026-05-07 18:13 | 41.28367 | 28.75559 | 339 ft | 0 kts | 333° |
| 2026-05-07 18:13 | 41.28368 | 28.75558 | 339 ft | 1 kts | 333° |
| 2026-05-07 18:13 | 41.28376 | 28.75553 | 339 ft | 2 kts | 333° |
| 2026-05-07 18:14 | 41.28390 | 28.75543 | 339 ft | 3 kts | 331° |
| 2026-05-07 18:14 | 41.28411 | 28.75527 | 334 ft | 4 kts | 330° |
| 2026-05-07 18:14 | 41.28438 | 28.75506 | 339 ft | 5 kts | 328° |
| 2026-05-07 18:14 | 41.28466 | 28.75475 | 334 ft | 6 kts | 311° |
| 2026-05-07 18:15 | 41.28482 | 28.75425 | 334 ft | 6 kts | 277° |
| 2026-05-07 18:15 | 41.28469 | 28.75374 | 334 ft | 6 kts | 234° |
| 2026-05-07 18:15 | 41.28432 | 28.75350 | 339 ft | 6 kts | 191° |
| 2026-05-07 18:15 | 41.28386 | 28.75344 | 339 ft | 7 kts | 184° |
| 2026-05-07 18:16 | 41.28332 | 28.75343 | 334 ft | 8 kts | 179° |
| 2026-05-07 18:16 | 41.28273 | 28.75344 | 335 ft | 9 kts | 180° |
| 2026-05-07 18:16 | 41.28208 | 28.75345 | 334 ft | 10 kts | 178° |
| 2026-05-07 18:16 | 41.28138 | 28.75348 | 337 ft | 10 kts | 179° |
| 2026-05-07 18:17 | 41.28063 | 28.75349 | 338 ft | 11 kts | 180° |
| 2026-05-07 18:17 | 41.27983 | 28.75351 | 337 ft | 12 kts | 178° |
| 2026-05-07 18:17 | 41.27898 | 28.75353 | 337 ft | 12 kts | 179° |
| 2026-05-07 18:17 | 41.27810 | 28.75355 | 336 ft | 13 kts | 179° |
| 2026-05-07 18:18 | 41.27717 | 28.75356 | 334 ft | 14 kts | 179° |
| 2026-05-07 18:18 | 41.27621 | 28.75359 | 339 ft | 14 kts | 178° |
| 2026-05-07 18:18 | 41.27522 | 28.75362 | 339 ft | 15 kts | 179° |
| 2026-05-07 18:18 | 41.27420 | 28.75363 | 335 ft | 15 kts | 179° |
| 2026-05-07 18:19 | 41.27315 | 28.75366 | 337 ft | 15 kts | 179° |
| 2026-05-07 18:19 | 41.27207 | 28.75369 | 335 ft | 15 kts | 179° |
| 2026-05-07 18:19 | 41.27135 | 28.75370 | 334 ft | 0 kts | 179° |
| 2026-05-07 18:19 | 41.27130 | 28.75370 | 334 ft | 1 kts | 179° |
| 2026-05-07 18:20 | 41.27127 | 28.75370 | 339 ft | 1 kts | 179° |
| 2026-05-07 18:20 | 41.27115 | 28.75370 | 339 ft | 2 kts | 181° |
| 2026-05-07 18:20 | 41.27099 | 28.75361 | 339 ft | 3 kts | 213° |
| 2026-05-07 18:20 | 41.27088 | 28.75339 | 334 ft | 3 kts | 239° |
| 2026-05-07 18:21 | 41.27074 | 28.75308 | 339 ft | 4 kts | 239° |
| 2026-05-07 18:21 | 41.27050 | 28.75279 | 339 ft | 5 kts | 210° |
| 2026-05-07 18:21 | 41.27014 | 28.75267 | 339 ft | 6 kts | 189° |
| 2026-05-07 18:21 | 41.26971 | 28.75264 | 334 ft | 7 kts | 181° |
| 2026-05-07 18:22 | 41.26920 | 28.75263 | 335 ft | 8 kts | 180° |
| 2026-05-07 18:22 | 41.26883 | 28.75263 | 334 ft | 8 kts | 179° |
| 2026-05-07 18:22 | 41.26801 | 28.75265 | 335 ft | 9 kts | 179° |
| 2026-05-07 18:22 | 41.26734 | 28.75266 | 336 ft | 10 kts | 179° |
| 2026-05-07 18:23 | 41.26660 | 28.75268 | 337 ft | 11 kts | 179° |
| 2026-05-07 18:23 | 41.26583 | 28.75270 | 339 ft | 12 kts | 179° |
| 2026-05-07 18:23 | 41.26499 | 28.75272 | 336 ft | 12 kts | 179° |
| 2026-05-07 18:23 | 41.26415 | 28.75274 | 337 ft | 11 kts | 179° |
| 2026-05-07 18:24 | 41.26338 | 28.75276 | 338 ft | 11 kts | 179° |
| 2026-05-07 18:24 | 41.26257 | 28.75277 | 335 ft | 12 kts | 179° |
| 2026-05-07 18:24 | 41.26173 | 28.75280 | 335 ft | 13 kts | 179° |
| 2026-05-07 18:24 | 41.26084 | 28.75282 | 339 ft | 13 kts | 179° |
| 2026-05-07 18:25 | 41.25990 | 28.75284 | 336 ft | 14 kts | 179° |
| 2026-05-07 18:25 | 41.25947 | 28.75285 | 339 ft | 5 kts | 179° |
| 2026-05-07 18:25 | 41.25905 | 28.75286 | 335 ft | 6 kts | 179° |
| 2026-05-07 18:25 | 41.25877 | 28.75279 | 339 ft | 4 kts | 208° |
| 2026-05-07 18:26 | 41.25873 | 28.75274 | 339 ft | 0 kts | 214° |
| 2026-05-07 18:26 | 41.25868 | 28.75273 | 339 ft | 1 kts | 195° |
| 2026-05-07 18:26 | 41.25861 | 28.75275 | 339 ft | 2 kts | 172° |
| 2026-05-07 18:26 | 41.25842 | 28.75279 | 334 ft | 4 kts | 169° |
| 2026-05-07 18:27 | 41.25812 | 28.75285 | 337 ft | 5 kts | 174° |
| 2026-05-07 18:27 | 41.25770 | 28.75288 | 334 ft | 7 kts | 177° |
| 2026-05-07 18:27 | 41.25716 | 28.75290 | 335 ft | 8 kts | 178° |
| 2026-05-07 18:27 | 41.25678 | 28.75284 | 339 ft | 4 kts | 204° |
| 2026-05-07 18:28 | 41.25661 | 28.75252 | 335 ft | 5 kts | 246° |
| 2026-05-07 18:28 | 41.25652 | 28.75201 | 335 ft | 6 kts | 263° |
| 2026-05-07 18:28 | 41.25649 | 28.75137 | 339 ft | 7 kts | 267° |
| 2026-05-07 18:28 | 41.25647 | 28.75062 | 334 ft | 8 kts | 268° |
| 2026-05-07 18:29 | 41.25646 | 28.74997 | 334 ft | 5 kts | 269° |
| 2026-05-07 18:29 | 41.25656 | 28.74960 | 335 ft | 5 kts | 309° |
| 2026-05-07 18:29 | 41.25684 | 28.74942 | 339 ft | 0 kts | 343° |
| 2026-05-07 18:29 | 41.25690 | 28.74940 | 339 ft | 2 kts | 345° |
| 2026-05-07 18:30 | 41.25705 | 28.74937 | 339 ft | 2 kts | 352° |
| 2026-05-07 18:30 | 41.25712 | 28.74936 | 339 ft | 1 kts | 354° |
| 2026-05-07 18:30 | 41.25719 | 28.74935 | 339 ft | 1 kts | 355° |
| 2026-05-07 18:30 | 41.25725 | 28.74935 | 339 ft | 0 kts | 356° |